Terminal Aerodrome Forecast
Issued by NWS Boston, MA

Home | Current Version | Previous Version | Text Only | Print | Product List | Glossary On
Versions: 1 2 3 4 5 6 7 8 9 10 11 12 13 14 15 16 17 18 19 20 21 22 23
000
FTUS41 KBOX 172327
TAFBDL
TAF
KBDL 172327Z 1800/1906 10009KT P6SM SCT070 BKN250
     FM180300 08005KT P6SM FEW250
     FM180500 01004KT P6SM FEW250
     FM181700 12005KT P6SM SCT250
     FM190100 18007KT P6SM SCT150=

USA.gov is the U.S. government's official web portal to all federal, state and local government web resources and services.